sensor_id;sensor_type;location;lat;lon;timestamp;P1;durP1;ratioP1;P2;durP2;ratioP2
28762;SDS011;15918;51.270;6.522;2023-03-23T00:01:24;5.40;;;2.88;;
28762;SDS011;15918;51.270;6.522;2023-03-23T00:03:52;5.63;;;3.13;;
28762;SDS011;15918;51.270;6.522;2023-03-23T00:06:21;5.60;;;2.97;;
28762;SDS011;15918;51.270;6.522;2023-03-23T00:08:48;4.72;;;2.70;;
28762;SDS011;15918;51.270;6.522;2023-03-23T00:11:20;5.22;;;3.28;;
28762;SDS011;15918;51.270;6.522;2023-03-23T00:13:48;6.55;;;3.85;;
28762;SDS011;15918;51.270;6.522;2023-03-23T00:16:16;3.75;;;3.10;;
28762;SDS011;15918;51.270;6.522;2023-03-23T00:18:52;5.10;;;2.72;;
28762;SDS011;15918;51.270;6.522;2023-03-23T00:21:21;5.20;;;3.08;;
28762;SDS011;15918;51.270;6.522;2023-03-23T00:24:09;3.75;;;2.83;;
28762;SDS011;15918;51.270;6.522;2023-03-23T00:26:43;4.63;;;2.90;;
28762;SDS011;15918;51.270;6.522;2023-03-23T00:29:14;5.45;;;2.80;;
28762;SDS011;15918;51.270;6.522;2023-03-23T00:31:46;5.33;;;2.80;;
28762;SDS011;15918;51.270;6.522;2023-03-23T00:34:12;4.57;;;2.75;;
28762;SDS011;15918;51.270;6.522;2023-03-23T00:36:44;2.92;;;2.65;;
28762;SDS011;15918;51.270;6.522;2023-03-23T00:39:21;3.72;;;2.80;;
28762;SDS011;15918;51.270;6.522;2023-03-23T00:41:50;5.30;;;2.70;;
28762;SDS011;15918;51.270;6.522;2023-03-23T00:44:16;6.75;;;3.47;;
28762;SDS011;15918;51.270;6.522;2023-03-23T00:46:43;4.55;;;3.30;;
28762;SDS011;15918;51.270;6.522;2023-03-23T00:49:14;4.80;;;2.95;;
28762;SDS011;15918;51.270;6.522;2023-03-23T00:51:41;4.00;;;2.92;;
28762;SDS011;15918;51.270;6.522;2023-03-23T00:54:07;5.05;;;3.00;;
28762;SDS011;15918;51.270;6.522;2023-03-23T00:56:33;3.45;;;2.78;;
28762;SDS011;15918;51.270;6.522;2023-03-23T00:59:00;3.92;;;2.60;;
28762;SDS011;15918;51.270;6.522;2023-03-23T01:01:25;4.82;;;3.22;;
28762;SDS011;15918;51.270;6.522;2023-03-23T01:03:51;4.03;;;2.90;;
28762;SDS011;15918;51.270;6.522;2023-03-23T01:06:25;4.78;;;2.97;;
28762;SDS011;15918;51.270;6.522;2023-03-23T01:08:52;4.15;;;3.05;;
28762;SDS011;15918;51.270;6.522;2023-03-23T01:11:19;3.25;;;2.75;;
28762;SDS011;15918;51.270;6.522;2023-03-23T01:13:45;4.82;;;3.13;;
28762;SDS011;15918;51.270;6.522;2023-03-23T01:16:11;4.38;;;3.30;;
28762;SDS011;15918;51.270;6.522;2023-03-23T01:18:37;4.13;;;3.30;;
28762;SDS011;15918;51.270;6.522;2023-03-23T01:21:05;4.28;;;3.03;;
28762;SDS011;15918;51.270;6.522;2023-03-23T01:23:32;5.93;;;3.22;;
28762;SDS011;15918;51.270;6.522;2023-03-23T01:26:02;3.95;;;2.60;;
28762;SDS011;15918;51.270;6.522;2023-03-23T01:28:33;3.08;;;2.60;;
28762;SDS011;15918;51.270;6.522;2023-03-23T01:31:04;4.10;;;3.15;;
28762;SDS011;15918;51.270;6.522;2023-03-23T01:33:31;3.58;;;2.70;;
28762;SDS011;15918;51.270;6.522;2023-03-23T01:35:57;5.72;;;3.03;;
28762;SDS011;15918;51.270;6.522;2023-03-23T01:38:27;3.15;;;2.78;;
28762;SDS011;15918;51.270;6.522;2023-03-23T01:40:52;4.10;;;2.58;;
28762;SDS011;15918;51.270;6.522;2023-03-23T01:43:18;5.55;;;2.40;;
28762;SDS011;15918;51.270;6.522;2023-03-23T01:45:44;4.32;;;2.72;;
28762;SDS011;15918;51.270;6.522;2023-03-23T01:51:00;5.47;;;3.05;;
28762;SDS011;15918;51.270;6.522;2023-03-23T01:53:30;3.55;;;2.85;;
28762;SDS011;15918;51.270;6.522;2023-03-23T01:56:02;3.67;;;2.72;;
28762;SDS011;15918;51.270;6.522;2023-03-23T01:58:30;5.18;;;2.75;;
28762;SDS011;15918;51.270;6.522;2023-03-23T02:00:58;5.13;;;2.80;;
28762;SDS011;15918;51.270;6.522;2023-03-23T02:03:29;3.67;;;2.70;;
28762;SDS011;15918;51.270;6.522;2023-03-23T02:05:56;3.90;;;3.10;;
28762;SDS011;15918;51.270;6.522;2023-03-23T02:08:23;6.13;;;3.10;;
28762;SDS011;15918;51.270;6.522;2023-03-23T02:10:53;4.15;;;2.78;;
28762;SDS011;15918;51.270;6.522;2023-03-23T02:13:18;4.35;;;3.10;;
28762;SDS011;15918;51.270;6.522;2023-03-23T02:15:59;3.58;;;2.90;;
28762;SDS011;15918;51.270;6.522;2023-03-23T02:22:03;4.22;;;3.08;;
28762;SDS011;15918;51.270;6.522;2023-03-23T02:24:45;3.50;;;2.92;;
28762;SDS011;15918;51.270;6.522;2023-03-23T02:27:41;3.70;;;2.95;;
28762;SDS011;15918;51.270;6.522;2023-03-23T02:35:57;3.20;;;2.70;;
28762;SDS011;15918;51.270;6.522;2023-03-23T02:38:32;4.88;;;2.83;;
28762;SDS011;15918;51.270;6.522;2023-03-23T02:41:03;4.55;;;2.78;;
28762;SDS011;15918;51.270;6.522;2023-03-23T02:43:31;3.90;;;2.78;;
28762;SDS011;15918;51.270;6.522;2023-03-23T02:46:01;3.60;;;2.75;;
28762;SDS011;15918;51.270;6.522;2023-03-23T02:48:31;3.53;;;2.60;;
28762;SDS011;15918;51.270;6.522;2023-03-23T02:50:58;3.80;;;2.67;;
28762;SDS011;15918;51.270;6.522;2023-03-23T02:53:25;3.00;;;2.53;;
28762;SDS011;15918;51.270;6.522;2023-03-23T02:55:53;3.17;;;2.88;;
28762;SDS011;15918;51.270;6.522;2023-03-23T02:58:20;4.28;;;3.25;;
28762;SDS011;15918;51.270;6.522;2023-03-23T03:00:48;3.28;;;2.95;;
28762;SDS011;15918;51.270;6.522;2023-03-23T03:03:19;4.65;;;3.05;;
28762;SDS011;15918;51.270;6.522;2023-03-23T03:08:36;3.78;;;2.30;;
28762;SDS011;15918;51.270;6.522;2023-03-23T03:11:20;3.42;;;2.45;;
28762;SDS011;15918;51.270;6.522;2023-03-23T03:16:26;5.18;;;3.15;;
28762;SDS011;15918;51.270;6.522;2023-03-23T03:19:02;5.13;;;2.63;;
28762;SDS011;15918;51.270;6.522;2023-03-23T03:21:37;3.05;;;2.40;;
28762;SDS011;15918;51.270;6.522;2023-03-23T03:24:07;3.97;;;2.90;;
28762;SDS011;15918;51.270;6.522;2023-03-23T03:26:36;4.43;;;2.45;;
28762;SDS011;15918;51.270;6.522;2023-03-23T03:29:06;5.60;;;3.25;;
28762;SDS011;15918;51.270;6.522;2023-03-23T03:31:33;3.08;;;2.65;;
28762;SDS011;15918;51.270;6.522;2023-03-23T03:34:03;2.47;;;2.28;;
28762;SDS011;15918;51.270;6.522;2023-03-23T03:36:30;3.00;;;2.72;;
28762;SDS011;15918;51.270;6.522;2023-03-23T03:39:00;2.78;;;2.10;;
28762;SDS011;15918;51.270;6.522;2023-03-23T03:41:29;2.58;;;2.38;;
28762;SDS011;15918;51.270;6.522;2023-03-23T03:43:55;2.85;;;2.55;;
28762;SDS011;15918;51.270;6.522;2023-03-23T03:46:21;5.43;;;2.63;;
28762;SDS011;15918;51.270;6.522;2023-03-23T03:48:46;5.20;;;2.50;;
28762;SDS011;15918;51.270;6.522;2023-03-23T03:51:12;2.83;;;2.38;;
28762;SDS011;15918;51.270;6.522;2023-03-23T03:53:37;3.42;;;2.28;;
28762;SDS011;15918;51.270;6.522;2023-03-23T03:56:03;3.20;;;2.55;;
28762;SDS011;15918;51.270;6.522;2023-03-23T03:58:30;2.78;;;2.35;;
28762;SDS011;15918;51.270;6.522;2023-03-23T04:00:59;3.92;;;2.40;;
28762;SDS011;15918;51.270;6.522;2023-03-23T04:03:25;3.40;;;2.42;;
28762;SDS011;15918;51.270;6.522;2023-03-23T04:05:52;3.08;;;2.40;;
28762;SDS011;15918;51.270;6.522;2023-03-23T04:08:20;2.70;;;2.47;;
28762;SDS011;15918;51.270;6.522;2023-03-23T04:10:49;3.22;;;2.50;;
28762;SDS011;15918;51.270;6.522;2023-03-23T04:13:16;3.72;;;2.72;;
28762;SDS011;15918;51.270;6.522;2023-03-23T04:15:42;3.42;;;3.05;;
28762;SDS011;15918;51.270;6.522;2023-03-23T04:18:09;3.80;;;2.85;;
28762;SDS011;15918;51.270;6.522;2023-03-23T04:20:34;4.85;;;2.90;;
28762;SDS011;15918;51.270;6.522;2023-03-23T04:23:00;4.28;;;2.88;;
28762;SDS011;15918;51.270;6.522;2023-03-23T04:25:27;3.63;;;2.50;;
28762;SDS011;15918;51.270;6.522;2023-03-23T04:27:52;3.25;;;2.78;;
28762;SDS011;15918;51.270;6.522;2023-03-23T04:30:22;3.60;;;2.88;;
28762;SDS011;15918;51.270;6.522;2023-03-23T04:32:49;3.67;;;2.72;;
28762;SDS011;15918;51.270;6.522;2023-03-23T04:35:17;3.47;;;2.88;;
28762;SDS011;15918;51.270;6.522;2023-03-23T04:37:44;3.65;;;2.85;;
28762;SDS011;15918;51.270;6.522;2023-03-23T04:40:10;4.82;;;2.88;;
28762;SDS011;15918;51.270;6.522;2023-03-23T04:42:39;3.17;;;2.88;;
28762;SDS011;15918;51.270;6.522;2023-03-23T04:45:10;4.18;;;2.88;;
28762;SDS011;15918;51.270;6.522;2023-03-23T04:47:41;4.10;;;2.95;;
28762;SDS011;15918;51.270;6.522;2023-03-23T04:50:14;4.28;;;2.90;;
28762;SDS011;15918;51.270;6.522;2023-03-23T04:52:40;3.13;;;2.83;;
28762;SDS011;15918;51.270;6.522;2023-03-23T04:55:11;3.95;;;3.10;;
28762;SDS011;15918;51.270;6.522;2023-03-23T04:57:38;3.30;;;2.55;;
28762;SDS011;15918;51.270;6.522;2023-03-23T05:00:05;5.78;;;2.90;;
28762;SDS011;15918;51.270;6.522;2023-03-23T05:02:37;4.38;;;2.88;;
28762;SDS011;15918;51.270;6.522;2023-03-23T05:05:05;3.65;;;3.08;;
28762;SDS011;15918;51.270;6.522;2023-03-23T05:07:36;3.88;;;2.80;;
28762;SDS011;15918;51.270;6.522;2023-03-23T05:10:03;3.00;;;2.70;;
28762;SDS011;15918;51.270;6.522;2023-03-23T05:12:29;3.80;;;2.90;;
28762;SDS011;15918;51.270;6.522;2023-03-23T05:14:55;6.25;;;3.05;;
28762;SDS011;15918;51.270;6.522;2023-03-23T05:17:20;5.07;;;3.33;;
28762;SDS011;15918;51.270;6.522;2023-03-23T05:19:49;5.57;;;2.72;;
28762;SDS011;15918;51.270;6.522;2023-03-23T05:22:16;4.65;;;2.75;;
28762;SDS011;15918;51.270;6.522;2023-03-23T05:24:42;3.83;;;2.83;;
28762;SDS011;15918;51.270;6.522;2023-03-23T05:27:08;5.00;;;3.38;;
28762;SDS011;15918;51.270;6.522;2023-03-23T05:29:35;4.97;;;3.55;;
28762;SDS011;15918;51.270;6.522;2023-03-23T05:32:02;5.53;;;3.05;;
28762;SDS011;15918;51.270;6.522;2023-03-23T05:34:29;7.05;;;3.25;;
28762;SDS011;15918;51.270;6.522;2023-03-23T05:36:57;3.88;;;3.08;;
28762;SDS011;15918;51.270;6.522;2023-03-23T05:39:25;3.42;;;2.85;;
28762;SDS011;15918;51.270;6.522;2023-03-23T05:41:51;7.00;;;3.10;;
28762;SDS011;15918;51.270;6.522;2023-03-23T05:44:17;4.22;;;2.95;;
28762;SDS011;15918;51.270;6.522;2023-03-23T05:46:43;4.38;;;3.50;;
28762;SDS011;15918;51.270;6.522;2023-03-23T05:49:09;5.93;;;3.55;;
28762;SDS011;15918;51.270;6.522;2023-03-23T05:51:35;5.50;;;3.35;;
28762;SDS011;15918;51.270;6.522;2023-03-23T05:54:01;4.25;;;3.03;;
28762;SDS011;15918;51.270;6.522;2023-03-23T05:56:28;3.58;;;2.78;;
28762;SDS011;15918;51.270;6.522;2023-03-23T05:58:55;3.63;;;2.58;;
28762;SDS011;15918;51.270;6.522;2023-03-23T06:01:21;3.72;;;2.58;;
28762;SDS011;15918;51.270;6.522;2023-03-23T06:03:46;5.85;;;3.33;;
28762;SDS011;15918;51.270;6.522;2023-03-23T06:06:16;5.97;;;3.22;;
28762;SDS011;15918;51.270;6.522;2023-03-23T06:08:42;4.28;;;2.95;;
28762;SDS011;15918;51.270;6.522;2023-03-23T06:11:09;4.25;;;2.90;;
28762;SDS011;15918;51.270;6.522;2023-03-23T06:13:35;4.88;;;2.92;;
28762;SDS011;15918;51.270;6.522;2023-03-23T06:16:01;6.30;;;3.35;;
28762;SDS011;15918;51.270;6.522;2023-03-23T06:18:28;3.17;;;2.75;;
28762;SDS011;15918;51.270;6.522;2023-03-23T06:20:54;6.50;;;3.40;;
28762;SDS011;15918;51.270;6.522;2023-03-23T06:23:20;5.40;;;3.75;;
28762;SDS011;15918;51.270;6.522;2023-03-23T06:25:46;6.75;;;3.80;;
28762;SDS011;15918;51.270;6.522;2023-03-23T06:28:11;7.85;;;3.42;;
28762;SDS011;15918;51.270;6.522;2023-03-23T06:30:37;7.50;;;3.88;;
28762;SDS011;15918;51.270;6.522;2023-03-23T06:33:03;8.65;;;4.00;;
28762;SDS011;15918;51.270;6.522;2023-03-23T06:35:30;6.57;;;3.58;;
28762;SDS011;15918;51.270;6.522;2023-03-23T06:37:57;7.35;;;3.75;;
28762;SDS011;15918;51.270;6.522;2023-03-23T06:40:26;3.53;;;3.00;;
28762;SDS011;15918;51.270;6.522;2023-03-23T06:42:52;6.10;;;3.40;;
28762;SDS011;15918;51.270;6.522;2023-03-23T06:45:18;4.85;;;2.83;;
28762;SDS011;15918;51.270;6.522;2023-03-23T06:47:45;5.97;;;3.10;;
28762;SDS011;15918;51.270;6.522;2023-03-23T06:50:13;5.60;;;2.88;;
28762;SDS011;15918;51.270;6.522;2023-03-23T06:52:40;6.65;;;2.75;;
28762;SDS011;15918;51.270;6.522;2023-03-23T06:55:06;4.93;;;2.60;;
28762;SDS011;15918;51.270;6.522;2023-03-23T06:57:32;6.93;;;2.83;;
28762;SDS011;15918;51.270;6.522;2023-03-23T06:59:57;5.22;;;2.70;;
28762;SDS011;15918;51.270;6.522;2023-03-23T07:02:23;5.20;;;3.00;;
28762;SDS011;15918;51.270;6.522;2023-03-23T07:04:49;4.72;;;2.90;;
28762;SDS011;15918;51.270;6.522;2023-03-23T07:07:14;4.57;;;2.88;;
28762;SDS011;15918;51.270;6.522;2023-03-23T07:09:43;8.25;;;2.88;;
28762;SDS011;15918;51.270;6.522;2023-03-23T07:12:09;7.03;;;2.97;;
28762;SDS011;15918;51.270;6.522;2023-03-23T07:14:35;7.65;;;2.90;;
28762;SDS011;15918;51.270;6.522;2023-03-23T07:17:02;6.40;;;2.30;;
28762;SDS011;15918;51.270;6.522;2023-03-23T07:19:28;6.07;;;2.95;;
28762;SDS011;15918;51.270;6.522;2023-03-23T07:21:53;7.80;;;2.45;;
28762;SDS011;15918;51.270;6.522;2023-03-23T07:24:19;7.57;;;2.90;;
28762;SDS011;15918;51.270;6.522;2023-03-23T07:26:45;4.32;;;2.45;;
28762;SDS011;15918;51.270;6.522;2023-03-23T07:29:10;5.20;;;2.10;;
28762;SDS011;15918;51.270;6.522;2023-03-23T07:31:36;3.67;;;2.45;;
28762;SDS011;15918;51.270;6.522;2023-03-23T07:34:02;5.75;;;2.63;;
28762;SDS011;15918;51.270;6.522;2023-03-23T07:36:28;5.10;;;2.20;;
28762;SDS011;15918;51.270;6.522;2023-03-23T07:38:54;7.50;;;2.42;;
28762;SDS011;15918;51.270;6.522;2023-03-23T07:41:20;6.85;;;2.60;;
28762;SDS011;15918;51.270;6.522;2023-03-23T07:43:45;5.13;;;2.42;;
28762;SDS011;15918;51.270;6.522;2023-03-23T07:46:11;7.90;;;2.70;;
28762;SDS011;15918;51.270;6.522;2023-03-23T07:48:37;3.97;;;2.15;;
28762;SDS011;15918;51.270;6.522;2023-03-23T07:51:03;4.95;;;2.58;;
28762;SDS011;15918;51.270;6.522;2023-03-23T07:53:30;5.25;;;2.40;;
28762;SDS011;15918;51.270;6.522;2023-03-23T07:55:56;3.97;;;2.10;;
28762;SDS011;15918;51.270;6.522;2023-03-23T07:58:22;9.40;;;2.65;;
28762;SDS011;15918;51.270;6.522;2023-03-23T08:00:47;6.18;;;2.40;;
28762;SDS011;15918;51.270;6.522;2023-03-23T08:03:14;6.40;;;2.45;;
28762;SDS011;15918;51.270;6.522;2023-03-23T08:05:40;4.38;;;2.20;;
28762;SDS011;15918;51.270;6.522;2023-03-23T08:08:07;4.55;;;2.22;;
28762;SDS011;15918;51.270;6.522;2023-03-23T08:10:34;4.97;;;2.15;;
28762;SDS011;15918;51.270;6.522;2023-03-23T08:13:01;5.47;;;2.58;;
28762;SDS011;15918;51.270;6.522;2023-03-23T08:15:27;6.10;;;2.58;;
28762;SDS011;15918;51.270;6.522;2023-03-23T08:17:53;6.55;;;2.28;;
28762;SDS011;15918;51.270;6.522;2023-03-23T08:20:19;7.68;;;2.50;;
28762;SDS011;15918;51.270;6.522;2023-03-23T08:22:48;6.82;;;2.83;;
28762;SDS011;15918;51.270;6.522;2023-03-23T08:25:17;5.88;;;2.38;;
28762;SDS011;15918;51.270;6.522;2023-03-23T08:27:43;7.07;;;2.05;;
28762;SDS011;15918;51.270;6.522;2023-03-23T08:30:13;7.35;;;2.53;;
28762;SDS011;15918;51.270;6.522;2023-03-23T08:32:42;7.03;;;2.08;;
28762;SDS011;15918;51.270;6.522;2023-03-23T08:35:08;6.50;;;2.58;;
28762;SDS011;15918;51.270;6.522;2023-03-23T08:37:36;8.73;;;2.13;;
28762;SDS011;15918;51.270;6.522;2023-03-23T08:40:03;7.50;;;2.50;;
28762;SDS011;15918;51.270;6.522;2023-03-23T08:42:35;5.35;;;2.42;;
28762;SDS011;15918;51.270;6.522;2023-03-23T08:45:03;9.73;;;2.45;;
28762;SDS011;15918;51.270;6.522;2023-03-23T08:47:30;7.82;;;1.90;;
28762;SDS011;15918;51.270;6.522;2023-03-23T08:49:57;8.80;;;2.83;;
28762;SDS011;15918;51.270;6.522;2023-03-23T08:52:22;8.05;;;2.70;;
28762;SDS011;15918;51.270;6.522;2023-03-23T08:54:48;7.43;;;2.00;;
28762;SDS011;15918;51.270;6.522;2023-03-23T08:57:14;6.97;;;2.50;;
28762;SDS011;15918;51.270;6.522;2023-03-23T08:59:40;8.60;;;2.45;;
28762;SDS011;15918;51.270;6.522;2023-03-23T09:02:09;9.15;;;2.42;;
28762;SDS011;15918;51.270;6.522;2023-03-23T09:04:36;9.32;;;2.60;;
28762;SDS011;15918;51.270;6.522;2023-03-23T09:07:07;6.65;;;2.65;;
28762;SDS011;15918;51.270;6.522;2023-03-23T09:09:34;5.03;;;2.60;;
28762;SDS011;15918;51.270;6.522;2023-03-23T09:12:00;6.05;;;2.40;;
28762;SDS011;15918;51.270;6.522;2023-03-23T09:14:25;6.68;;;2.47;;
28762;SDS011;15918;51.270;6.522;2023-03-23T09:16:51;8.43;;;2.70;;
28762;SDS011;15918;51.270;6.522;2023-03-23T09:19:17;7.78;;;2.70;;
28762;SDS011;15918;51.270;6.522;2023-03-23T09:21:43;9.35;;;2.50;;
28762;SDS011;15918;51.270;6.522;2023-03-23T09:24:10;9.60;;;3.05;;
28762;SDS011;15918;51.270;6.522;2023-03-23T09:26:36;7.35;;;2.60;;
28762;SDS011;15918;51.270;6.522;2023-03-23T09:29:02;9.43;;;3.08;;
28762;SDS011;15918;51.270;6.522;2023-03-23T09:31:28;7.28;;;2.47;;
28762;SDS011;15918;51.270;6.522;2023-03-23T09:33:54;6.18;;;2.50;;
28762;SDS011;15918;51.270;6.522;2023-03-23T09:36:22;5.53;;;2.60;;
28762;SDS011;15918;51.270;6.522;2023-03-23T09:38:48;4.55;;;2.50;;
28762;SDS011;15918;51.270;6.522;2023-03-23T09:43:59;8.13;;;2.88;;
28762;SDS011;15918;51.270;6.522;2023-03-23T09:46:45;8.93;;;2.85;;
28762;SDS011;15918;51.270;6.522;2023-03-23T09:49:33;5.65;;;2.63;;
28762;SDS011;15918;51.270;6.522;2023-03-23T09:52:05;4.25;;;2.45;;
28762;SDS011;15918;51.270;6.522;2023-03-23T09:54:37;3.28;;;1.77;;
28762;SDS011;15918;51.270;6.522;2023-03-23T09:57:10;4.78;;;2.33;;
28762;SDS011;15918;51.270;6.522;2023-03-23T09:59:45;4.88;;;2.17;;
28762;SDS011;15918;51.270;6.522;2023-03-23T10:05:42;4.22;;;1.70;;
28762;SDS011;15918;51.270;6.522;2023-03-23T10:08:16;3.33;;;1.48;;
28762;SDS011;15918;51.270;6.522;2023-03-23T10:16:24;1.73;;;1.15;;
28762;SDS011;15918;51.270;6.522;2023-03-23T10:18:58;5.40;;;1.83;;
28762;SDS011;15918;51.270;6.522;2023-03-23T10:21:35;2.63;;;1.25;;
28762;SDS011;15918;51.270;6.522;2023-03-23T10:24:09;3.75;;;1.13;;
28762;SDS011;15918;51.270;6.522;2023-03-23T10:26:54;1.88;;;1.10;;
28762;SDS011;15918;51.270;6.522;2023-03-23T10:29:47;3.30;;;1.15;;
28762;SDS011;15918;51.270;6.522;2023-03-23T10:32:20;6.88;;;1.40;;
28762;SDS011;15918;51.270;6.522;2023-03-23T10:35:02;2.38;;;1.27;;
28762;SDS011;15918;51.270;6.522;2023-03-23T10:37:37;4.28;;;1.20;;
28762;SDS011;15918;51.270;6.522;2023-03-23T10:40:12;3.65;;;1.08;;
28762;SDS011;15918;51.270;6.522;2023-03-23T10:42:49;2.55;;;1.02;;
28762;SDS011;15918;51.270;6.522;2023-03-23T10:47:46;2.20;;;0.80;;
28762;SDS011;15918;51.270;6.522;2023-03-23T10:50:17;1.27;;;0.85;;
28762;SDS011;15918;51.270;6.522;2023-03-23T10:52:48;5.57;;;2.03;;
28762;SDS011;15918;51.270;6.522;2023-03-23T10:55:19;3.95;;;1.67;;
28762;SDS011;15918;51.270;6.522;2023-03-23T11:00:26;3.63;;;1.80;;
28762;SDS011;15918;51.270;6.522;2023-03-23T11:05:25;3.63;;;2.10;;
28762;SDS011;15918;51.270;6.522;2023-03-23T11:07:57;3.42;;;1.92;;
28762;SDS011;15918;51.270;6.522;2023-03-23T11:10:38;5.30;;;2.38;;
28762;SDS011;15918;51.270;6.522;2023-03-23T11:13:11;5.30;;;2.10;;
28762;SDS011;15918;51.270;6.522;2023-03-23T11:15:39;6.38;;;2.33;;
28762;SDS011;15918;51.270;6.522;2023-03-23T11:18:11;3.70;;;2.30;;
28762;SDS011;15918;51.270;6.522;2023-03-23T11:20:43;6.38;;;2.40;;
28762;SDS011;15918;51.270;6.522;2023-03-23T11:23:10;7.35;;;2.70;;
28762;SDS011;15918;51.270;6.522;2023-03-23T11:25:51;5.63;;;2.65;;
28762;SDS011;15918;51.270;6.522;2023-03-23T11:28:20;7.65;;;2.92;;
28762;SDS011;15918;51.270;6.522;2023-03-23T11:30:46;6.07;;;2.15;;
28762;SDS011;15918;51.270;6.522;2023-03-23T11:33:12;4.15;;;1.65;;
28762;SDS011;15918;51.270;6.522;2023-03-23T11:35:42;5.68;;;1.90;;
28762;SDS011;15918;51.270;6.522;2023-03-23T11:38:17;3.38;;;1.58;;
28762;SDS011;15918;51.270;6.522;2023-03-23T11:40:48;1.60;;;1.42;;
28762;SDS011;15918;51.270;6.522;2023-03-23T11:43:20;2.70;;;1.42;;
28762;SDS011;15918;51.270;6.522;2023-03-23T11:45:58;3.28;;;1.60;;
28762;SDS011;15918;51.270;6.522;2023-03-23T11:51:23;2.90;;;1.60;;
28762;SDS011;15918;51.270;6.522;2023-03-23T11:56:39;3.63;;;1.65;;
28762;SDS011;15918;51.270;6.522;2023-03-23T11:59:17;5.00;;;1.70;;
28762;SDS011;15918;51.270;6.522;2023-03-23T12:01:56;2.78;;;1.55;;
28762;SDS011;15918;51.270;6.522;2023-03-23T12:04:40;3.60;;;1.67;;
28762;SDS011;15918;51.270;6.522;2023-03-23T12:15:25;4.78;;;2.15;;
28762;SDS011;15918;51.270;6.522;2023-03-23T12:18:14;3.20;;;1.73;;
28762;SDS011;15918;51.270;6.522;2023-03-23T12:41:17;5.30;;;2.28;;
28762;SDS011;15918;51.270;6.522;2023-03-23T12:43:49;8.88;;;2.28;;
28762;SDS011;15918;51.270;6.522;2023-03-23T12:49:10;4.20;;;2.00;;
28762;SDS011;15918;51.270;6.522;2023-03-23T12:57:16;7.35;;;2.42;;
28762;SDS011;15918;51.270;6.522;2023-03-23T12:59:54;4.47;;;2.45;;
28762;SDS011;15918;51.270;6.522;2023-03-23T13:03:00;8.57;;;2.63;;
28762;SDS011;15918;51.270;6.522;2023-03-23T13:08:06;5.18;;;2.33;;
28762;SDS011;15918;51.270;6.522;2023-03-23T13:10:48;5.30;;;2.67;;
28762;SDS011;15918;51.270;6.522;2023-03-23T13:13:19;5.88;;;2.60;;
28762;SDS011;15918;51.270;6.522;2023-03-23T13:21:49;5.10;;;2.50;;
28762;SDS011;15918;51.270;6.522;2023-03-23T13:24:25;4.80;;;2.55;;
28762;SDS011;15918;51.270;6.522;2023-03-23T13:26:54;4.65;;;2.55;;
28762;SDS011;15918;51.270;6.522;2023-03-23T13:29:22;5.70;;;2.58;;
28762;SDS011;15918;51.270;6.522;2023-03-23T13:31:50;4.60;;;2.83;;
28762;SDS011;15918;51.270;6.522;2023-03-23T13:34:20;5.07;;;2.42;;
28762;SDS011;15918;51.270;6.522;2023-03-23T13:36:53;7.95;;;2.83;;
28762;SDS011;15918;51.270;6.522;2023-03-23T13:39:20;7.85;;;2.88;;
28762;SDS011;15918;51.270;6.522;2023-03-23T13:50:01;5.03;;;3.13;;
28762;SDS011;15918;51.270;6.522;2023-03-23T14:02:49;5.30;;;3.38;;
28762;SDS011;15918;51.270;6.522;2023-03-23T14:07:52;6.70;;;3.13;;
28762;SDS011;15918;51.270;6.522;2023-03-23T14:10:25;6.90;;;4.18;;
28762;SDS011;15918;51.270;6.522;2023-03-23T14:12:58;5.72;;;3.38;;
28762;SDS011;15918;51.270;6.522;2023-03-23T14:15:30;5.38;;;3.05;;
28762;SDS011;15918;51.270;6.522;2023-03-23T14:18:05;10.93;;;3.53;;
28762;SDS011;15918;51.270;6.522;2023-03-23T14:20:32;6.10;;;3.55;;
28762;SDS011;15918;51.270;6.522;2023-03-23T14:22:59;6.47;;;3.22;;
28762;SDS011;15918;51.270;6.522;2023-03-23T14:25:27;5.25;;;3.00;;
28762;SDS011;15918;51.270;6.522;2023-03-23T14:27:56;5.38;;;3.08;;
28762;SDS011;15918;51.270;6.522;2023-03-23T14:30:26;7.25;;;2.85;;
28762;SDS011;15918;51.270;6.522;2023-03-23T14:33:05;7.25;;;2.95;;
28762;SDS011;15918;51.270;6.522;2023-03-23T14:35:35;6.05;;;3.13;;
28762;SDS011;15918;51.270;6.522;2023-03-23T14:38:03;6.40;;;2.22;;
28762;SDS011;15918;51.270;6.522;2023-03-23T14:40:30;5.93;;;2.95;;
28762;SDS011;15918;51.270;6.522;2023-03-23T14:42:56;6.93;;;2.60;;
28762;SDS011;15918;51.270;6.522;2023-03-23T14:45:23;5.85;;;2.75;;
28762;SDS011;15918;51.270;6.522;2023-03-23T14:47:51;9.80;;;3.10;;
28762;SDS011;15918;51.270;6.522;2023-03-23T14:53:02;7.03;;;3.05;;
28762;SDS011;15918;51.270;6.522;2023-03-23T14:55:35;6.13;;;2.50;;
28762;SDS011;15918;51.270;6.522;2023-03-23T14:58:05;8.77;;;2.22;;
28762;SDS011;15918;51.270;6.522;2023-03-23T15:00:35;5.70;;;2.80;;
28762;SDS011;15918;51.270;6.522;2023-03-23T15:03:05;8.10;;;2.75;;
28762;SDS011;15918;51.270;6.522;2023-03-23T15:05:36;6.20;;;2.50;;
28762;SDS011;15918;51.270;6.522;2023-03-23T15:08:07;6.15;;;2.70;;
28762;SDS011;15918;51.270;6.522;2023-03-23T15:10:39;7.30;;;2.65;;
28762;SDS011;15918;51.270;6.522;2023-03-23T15:13:08;10.52;;;2.75;;
28762;SDS011;15918;51.270;6.522;2023-03-23T15:15:37;7.85;;;2.97;;
28762;SDS011;15918;51.270;6.522;2023-03-23T15:18:03;8.57;;;2.78;;
28762;SDS011;15918;51.270;6.522;2023-03-23T15:20:48;5.28;;;2.70;;
28762;SDS011;15918;51.270;6.522;2023-03-23T15:23:22;5.97;;;2.70;;
28762;SDS011;15918;51.270;6.522;2023-03-23T15:25:52;7.18;;;3.00;;
28762;SDS011;15918;51.270;6.522;2023-03-23T15:28:29;6.90;;;3.17;;
28762;SDS011;15918;51.270;6.522;2023-03-23T15:30:59;8.02;;;3.13;;
28762;SDS011;15918;51.270;6.522;2023-03-23T15:33:27;6.68;;;3.03;;
28762;SDS011;15918;51.270;6.522;2023-03-23T15:35:59;8.00;;;3.10;;
28762;SDS011;15918;51.270;6.522;2023-03-23T15:38:32;8.30;;;3.10;;
28762;SDS011;15918;51.270;6.522;2023-03-23T15:41:01;7.97;;;3.33;;
28762;SDS011;15918;51.270;6.522;2023-03-23T15:43:35;4.57;;;2.88;;
28762;SDS011;15918;51.270;6.522;2023-03-23T15:51:14;8.38;;;3.28;;
28762;SDS011;15918;51.270;6.522;2023-03-23T15:53:41;8.23;;;3.00;;
28762;SDS011;15918;51.270;6.522;2023-03-23T15:56:08;9.75;;;3.88;;
28762;SDS011;15918;51.270;6.522;2023-03-23T15:58:35;7.53;;;3.10;;
28762;SDS011;15918;51.270;6.522;2023-03-23T16:01:04;9.20;;;3.10;;
28762;SDS011;15918;51.270;6.522;2023-03-23T16:03:49;8.25;;;2.92;;
28762;SDS011;15918;51.270;6.522;2023-03-23T16:06:18;7.22;;;3.42;;
28762;SDS011;15918;51.270;6.522;2023-03-23T16:08:45;5.78;;;2.80;;
28762;SDS011;15918;51.270;6.522;2023-03-23T16:11:11;7.93;;;3.05;;
28762;SDS011;15918;51.270;6.522;2023-03-23T16:13:38;7.55;;;3.00;;
28762;SDS011;15918;51.270;6.522;2023-03-23T16:16:05;6.68;;;3.40;;
28762;SDS011;15918;51.270;6.522;2023-03-23T16:18:35;8.63;;;2.92;;
28762;SDS011;15918;51.270;6.522;2023-03-23T16:21:01;7.25;;;3.00;;
28762;SDS011;15918;51.270;6.522;2023-03-23T16:23:27;6.43;;;3.00;;
28762;SDS011;15918;51.270;6.522;2023-03-23T16:25:53;7.85;;;2.90;;
28762;SDS011;15918;51.270;6.522;2023-03-23T16:28:18;5.28;;;2.80;;
28762;SDS011;15918;51.270;6.522;2023-03-23T16:30:44;6.22;;;3.13;;
28762;SDS011;15918;51.270;6.522;2023-03-23T16:33:11;6.80;;;3.30;;
28762;SDS011;15918;51.270;6.522;2023-03-23T16:35:37;6.43;;;3.10;;
28762;SDS011;15918;51.270;6.522;2023-03-23T16:38:03;7.38;;;3.00;;
28762;SDS011;15918;51.270;6.522;2023-03-23T16:40:29;8.10;;;3.38;;
28762;SDS011;15918;51.270;6.522;2023-03-23T16:42:55;7.22;;;2.55;;
28762;SDS011;15918;51.270;6.522;2023-03-23T16:45:21;8.25;;;3.50;;
28762;SDS011;15918;51.270;6.522;2023-03-23T16:47:48;4.72;;;2.40;;
28762;SDS011;15918;51.270;6.522;2023-03-23T16:50:15;10.07;;;3.10;;
28762;SDS011;15918;51.270;6.522;2023-03-23T16:52:42;6.35;;;2.78;;
28762;SDS011;15918;51.270;6.522;2023-03-23T16:55:10;7.93;;;3.00;;
28762;SDS011;15918;51.270;6.522;2023-03-23T16:57:36;6.60;;;3.03;;